Terminal Aerodrome Forecast
Issued by NWS St Louis, MO

Home | Current Version | Previous Version | Text Only | Print | Product List | Glossary On
Versions: 1 2 3 4 5 6 7 8 9 10 11 12 13 14 15 16 17 18 19 20
000
FTUS43 KLSX 160800 AAA
TAFCOU
TAF AMD
KCOU 160834Z 1609/1706 02005KT P6SM SCT008 OVC015
      TEMPO 1609/1610 OVC008
     FM161100 04005KT P6SM SCT020
      TEMPO 1611/1613 3SM BR
     FM161500 07005KT P6SM SCT030=

USA.gov is the U.S. government's official web portal to all federal, state and local government web resources and services.